sensor_id;sensor_type;location;lat;lon;timestamp;P1;durP1;ratioP1;P2;durP2;ratioP2
50231;SDS011;36118;56.468;84.952;2023-08-24T00:04:04;13.77;;;9.40;;
50231;SDS011;36118;56.468;84.952;2023-08-24T00:09:07;13.40;;;8.90;;
50231;SDS011;36118;56.468;84.952;2023-08-24T00:14:11;13.85;;;8.90;;
50231;SDS011;36118;56.468;84.952;2023-08-24T00:19:15;13.13;;;8.60;;
50231;SDS011;36118;56.468;84.952;2023-08-24T00:24:19;15.13;;;8.75;;
50231;SDS011;36118;56.468;84.952;2023-08-24T00:29:22;16.45;;;9.35;;
50231;SDS011;36118;56.468;84.952;2023-08-24T00:34:25;19.33;;;8.90;;
50231;SDS011;36118;56.468;84.952;2023-08-24T00:39:28;17.10;;;9.55;;
50231;SDS011;36118;56.468;84.952;2023-08-24T00:44:32;19.73;;;9.50;;
50231;SDS011;36118;56.468;84.952;2023-08-24T00:49:36;12.02;;;8.00;;
50231;SDS011;36118;56.468;84.952;2023-08-24T00:54:39;12.73;;;7.93;;
50231;SDS011;36118;56.468;84.952;2023-08-24T00:59:45;16.52;;;8.20;;
50231;SDS011;36118;56.468;84.952;2023-08-24T01:04:49;16.48;;;7.95;;
50231;SDS011;36118;56.468;84.952;2023-08-24T01:09:53;20.63;;;7.82;;
50231;SDS011;36118;56.468;84.952;2023-08-24T01:20:24;12.15;;;7.70;;
50231;SDS011;36118;56.468;84.952;2023-08-24T01:25:47;16.70;;;6.88;;
50231;SDS011;36118;56.468;84.952;2023-08-24T01:30:56;11.18;;;6.70;;
50231;SDS011;36118;56.468;84.952;2023-08-24T01:36:01;12.10;;;7.07;;
50231;SDS011;36118;56.468;84.952;2023-08-24T01:46:25;14.07;;;7.15;;
50231;SDS011;36118;56.468;84.952;2023-08-24T01:51:29;17.45;;;7.18;;
50231;SDS011;36118;56.468;84.952;2023-08-24T01:56:34;12.38;;;7.25;;
50231;SDS011;36118;56.468;84.952;2023-08-24T02:01:37;14.05;;;7.13;;
50231;SDS011;36118;56.468;84.952;2023-08-24T02:06:40;18.33;;;7.22;;
50231;SDS011;36118;56.468;84.952;2023-08-24T02:11:44;22.20;;;8.43;;
50231;SDS011;36118;56.468;84.952;2023-08-24T02:16:47;27.88;;;12.68;;
50231;SDS011;36118;56.468;84.952;2023-08-24T02:21:50;27.40;;;13.45;;
50231;SDS011;36118;56.468;84.952;2023-08-24T02:26:54;41.90;;;15.00;;
50231;SDS011;36118;56.468;84.952;2023-08-24T02:31:57;16.35;;;9.63;;
50231;SDS011;36118;56.468;84.952;2023-08-24T02:37:00;19.60;;;8.43;;
50231;SDS011;36118;56.468;84.952;2023-08-24T02:42:04;14.48;;;7.55;;
50231;SDS011;36118;56.468;84.952;2023-08-24T02:47:08;12.90;;;8.10;;
50231;SDS011;36118;56.468;84.952;2023-08-24T02:52:12;11.93;;;7.20;;
50231;SDS011;36118;56.468;84.952;2023-08-24T02:57:16;15.50;;;8.15;;
50231;SDS011;36118;56.468;84.952;2023-08-24T03:02:19;13.45;;;8.23;;
50231;SDS011;36118;56.468;84.952;2023-08-24T03:07:22;15.60;;;8.55;;
50231;SDS011;36118;56.468;84.952;2023-08-24T03:12:27;15.10;;;7.68;;
50231;SDS011;36118;56.468;84.952;2023-08-24T03:17:30;16.50;;;7.88;;
50231;SDS011;36118;56.468;84.952;2023-08-24T03:22:33;16.05;;;7.93;;
50231;SDS011;36118;56.468;84.952;2023-08-24T03:27:37;12.85;;;7.65;;
50231;SDS011;36118;56.468;84.952;2023-08-24T03:32:41;17.55;;;8.15;;
50231;SDS011;36118;56.468;84.952;2023-08-24T03:37:44;15.43;;;7.22;;
50231;SDS011;36118;56.468;84.952;2023-08-24T03:42:47;15.52;;;7.43;;
50231;SDS011;36118;56.468;84.952;2023-08-24T03:47:53;17.10;;;7.38;;
50231;SDS011;36118;56.468;84.952;2023-08-24T03:52:56;14.13;;;7.80;;
50231;SDS011;36118;56.468;84.952;2023-08-24T03:58:00;17.67;;;9.00;;
50231;SDS011;36118;56.468;84.952;2023-08-24T04:03:03;18.25;;;8.10;;
50231;SDS011;36118;56.468;84.952;2023-08-24T04:08:06;14.60;;;8.10;;
50231;SDS011;36118;56.468;84.952;2023-08-24T04:13:11;25.17;;;10.10;;
50231;SDS011;36118;56.468;84.952;2023-08-24T04:18:15;10.88;;;7.97;;
50231;SDS011;36118;56.468;84.952;2023-08-24T04:23:23;12.43;;;8.60;;
50231;SDS011;36118;56.468;84.952;2023-08-24T04:28:27;13.75;;;7.70;;
50231;SDS011;36118;56.468;84.952;2023-08-24T04:33:30;13.75;;;8.20;;
50231;SDS011;36118;56.468;84.952;2023-08-24T04:38:33;15.93;;;8.57;;
50231;SDS011;36118;56.468;84.952;2023-08-24T04:43:36;14.20;;;7.43;;
50231;SDS011;36118;56.468;84.952;2023-08-24T04:48:39;11.30;;;8.70;;
50231;SDS011;36118;56.468;84.952;2023-08-24T04:53:42;15.05;;;7.82;;
50231;SDS011;36118;56.468;84.952;2023-08-24T04:58:54;12.20;;;7.95;;
50231;SDS011;36118;56.468;84.952;2023-08-24T05:03:59;11.75;;;8.10;;
50231;SDS011;36118;56.468;84.952;2023-08-24T05:09:02;11.68;;;7.75;;
50231;SDS011;36118;56.468;84.952;2023-08-24T05:14:05;15.30;;;7.78;;
50231;SDS011;36118;56.468;84.952;2023-08-24T05:19:09;14.27;;;7.93;;
50231;SDS011;36118;56.468;84.952;2023-08-24T05:24:12;14.45;;;7.82;;
50231;SDS011;36118;56.468;84.952;2023-08-24T05:29:16;14.00;;;7.38;;
50231;SDS011;36118;56.468;84.952;2023-08-24T05:34:19;16.73;;;8.02;;
50231;SDS011;36118;56.468;84.952;2023-08-24T05:39:22;15.13;;;7.43;;
50231;SDS011;36118;56.468;84.952;2023-08-24T05:44:26;14.95;;;8.13;;
50231;SDS011;36118;56.468;84.952;2023-08-24T05:54:35;11.73;;;8.13;;
50231;SDS011;36118;56.468;84.952;2023-08-24T05:59:39;11.88;;;7.90;;
50231;SDS011;36118;56.468;84.952;2023-08-24T06:04:43;15.60;;;8.27;;
50231;SDS011;36118;56.468;84.952;2023-08-24T06:09:47;12.93;;;8.40;;
50231;SDS011;36118;56.468;84.952;2023-08-24T06:14:50;13.15;;;7.90;;
50231;SDS011;36118;56.468;84.952;2023-08-24T06:19:54;14.23;;;7.07;;
50231;SDS011;36118;56.468;84.952;2023-08-24T06:24:57;11.95;;;6.72;;
50231;SDS011;36118;56.468;84.952;2023-08-24T06:30:05;10.45;;;6.55;;
50231;SDS011;36118;56.468;84.952;2023-08-24T06:35:10;12.80;;;6.65;;
50231;SDS011;36118;56.468;84.952;2023-08-24T06:40:17;16.33;;;6.75;;
50231;SDS011;36118;56.468;84.952;2023-08-24T06:45:21;10.18;;;6.03;;
50231;SDS011;36118;56.468;84.952;2023-08-24T06:50:24;18.35;;;5.90;;
50231;SDS011;36118;56.468;84.952;2023-08-24T06:55:28;13.40;;;6.25;;
50231;SDS011;36118;56.468;84.952;2023-08-24T07:00:32;7.85;;;5.72;;
50231;SDS011;36118;56.468;84.952;2023-08-24T07:05:39;10.65;;;5.53;;
50231;SDS011;36118;56.468;84.952;2023-08-24T07:10:42;9.57;;;5.32;;
50231;SDS011;36118;56.468;84.952;2023-08-24T07:15:46;8.90;;;5.47;;
50231;SDS011;36118;56.468;84.952;2023-08-24T07:20:49;9.93;;;4.95;;
50231;SDS011;36118;56.468;84.952;2023-08-24T07:25:52;9.55;;;5.10;;
50231;SDS011;36118;56.468;84.952;2023-08-24T07:30:56;7.50;;;5.35;;
50231;SDS011;36118;56.468;84.952;2023-08-24T07:36:00;9.98;;;5.35;;
50231;SDS011;36118;56.468;84.952;2023-08-24T07:41:07;9.73;;;4.90;;
50231;SDS011;36118;56.468;84.952;2023-08-24T07:46:12;9.75;;;5.13;;
50231;SDS011;36118;56.468;84.952;2023-08-24T07:51:16;11.63;;;5.78;;
50231;SDS011;36118;56.468;84.952;2023-08-24T07:56:18;17.48;;;5.68;;
50231;SDS011;36118;56.468;84.952;2023-08-24T08:01:21;11.15;;;5.30;;
50231;SDS011;36118;56.468;84.952;2023-08-24T08:06:25;8.43;;;4.57;;
50231;SDS011;36118;56.468;84.952;2023-08-24T08:11:29;9.40;;;4.78;;
50231;SDS011;36118;56.468;84.952;2023-08-24T08:16:33;9.95;;;4.97;;
50231;SDS011;36118;56.468;84.952;2023-08-24T08:21:36;12.85;;;5.55;;
50231;SDS011;36118;56.468;84.952;2023-08-24T08:26:39;8.73;;;4.55;;
50231;SDS011;36118;56.468;84.952;2023-08-24T08:31:42;9.50;;;4.78;;
50231;SDS011;36118;56.468;84.952;2023-08-24T08:36:45;10.75;;;4.93;;
50231;SDS011;36118;56.468;84.952;2023-08-24T08:41:49;10.18;;;4.70;;
50231;SDS011;36118;56.468;84.952;2023-08-24T08:46:52;12.50;;;5.13;;
50231;SDS011;36118;56.468;84.952;2023-08-24T08:51:55;12.27;;;4.80;;
50231;SDS011;36118;56.468;84.952;2023-08-24T08:56:59;8.43;;;5.10;;
50231;SDS011;36118;56.468;84.952;2023-08-24T09:02:03;11.82;;;4.85;;
50231;SDS011;36118;56.468;84.952;2023-08-24T09:07:08;11.43;;;4.93;;
50231;SDS011;36118;56.468;84.952;2023-08-24T09:12:14;13.10;;;4.78;;
50231;SDS011;36118;56.468;84.952;2023-08-24T09:17:20;6.13;;;4.05;;
50231;SDS011;36118;56.468;84.952;2023-08-24T09:22:24;9.30;;;4.22;;
50231;SDS011;36118;56.468;84.952;2023-08-24T09:27:28;12.32;;;4.65;;
50231;SDS011;36118;56.468;84.952;2023-08-24T09:32:32;12.23;;;4.60;;
50231;SDS011;36118;56.468;84.952;2023-08-24T09:37:35;9.20;;;4.47;;
50231;SDS011;36118;56.468;84.952;2023-08-24T09:42:42;9.43;;;4.60;;
50231;SDS011;36118;56.468;84.952;2023-08-24T09:47:51;10.13;;;4.70;;
50231;SDS011;36118;56.468;84.952;2023-08-24T09:52:56;9.32;;;4.40;;
50231;SDS011;36118;56.468;84.952;2023-08-24T09:58:00;8.35;;;4.40;;
50231;SDS011;36118;56.468;84.952;2023-08-24T10:03:06;11.77;;;4.88;;
50231;SDS011;36118;56.468;84.952;2023-08-24T10:08:09;10.75;;;4.70;;
50231;SDS011;36118;56.468;84.952;2023-08-24T10:13:14;8.70;;;4.75;;
50231;SDS011;36118;56.468;84.952;2023-08-24T10:18:22;7.57;;;4.03;;
50231;SDS011;36118;56.468;84.952;2023-08-24T10:23:27;12.23;;;4.72;;
50231;SDS011;36118;56.468;84.952;2023-08-24T10:28:32;11.30;;;4.35;;
50231;SDS011;36118;56.468;84.952;2023-08-24T10:33:36;11.80;;;4.57;;
50231;SDS011;36118;56.468;84.952;2023-08-24T10:38:40;10.73;;;4.70;;
50231;SDS011;36118;56.468;84.952;2023-08-24T10:43:48;9.65;;;4.68;;
50231;SDS011;36118;56.468;84.952;2023-08-24T10:48:58;12.85;;;4.60;;
50231;SDS011;36118;56.468;84.952;2023-08-24T10:54:02;7.75;;;4.40;;
50231;SDS011;36118;56.468;84.952;2023-08-24T10:59:11;9.18;;;4.97;;
50231;SDS011;36118;56.468;84.952;2023-08-24T11:04:18;7.70;;;4.72;;
50231;SDS011;36118;56.468;84.952;2023-08-24T11:09:22;7.28;;;4.50;;
50231;SDS011;36118;56.468;84.952;2023-08-24T11:14:27;7.40;;;4.47;;
50231;SDS011;36118;56.468;84.952;2023-08-24T11:19:33;9.40;;;4.55;;
50231;SDS011;36118;56.468;84.952;2023-08-24T11:24:36;12.10;;;5.00;;
50231;SDS011;36118;56.468;84.952;2023-08-24T11:29:41;9.90;;;4.95;;
50231;SDS011;36118;56.468;84.952;2023-08-24T11:34:45;9.68;;;5.13;;
50231;SDS011;36118;56.468;84.952;2023-08-24T11:39:49;9.85;;;5.20;;
50231;SDS011;36118;56.468;84.952;2023-08-24T11:44:53;9.23;;;5.30;;
50231;SDS011;36118;56.468;84.952;2023-08-24T11:49:56;8.40;;;4.83;;
50231;SDS011;36118;56.468;84.952;2023-08-24T11:55:04;13.00;;;5.25;;
50231;SDS011;36118;56.468;84.952;2023-08-24T12:00:12;13.50;;;5.70;;
50231;SDS011;36118;56.468;84.952;2023-08-24T12:05:23;11.23;;;5.90;;
50231;SDS011;36118;56.468;84.952;2023-08-24T12:10:28;10.50;;;5.40;;
50231;SDS011;36118;56.468;84.952;2023-08-24T12:15:35;13.30;;;6.28;;
50231;SDS011;36118;56.468;84.952;2023-08-24T12:20:42;7.78;;;5.50;;
50231;SDS011;36118;56.468;84.952;2023-08-24T12:25:45;10.23;;;5.97;;
50231;SDS011;36118;56.468;84.952;2023-08-24T12:30:49;13.50;;;6.07;;
50231;SDS011;36118;56.468;84.952;2023-08-24T12:35:54;10.10;;;5.55;;
50231;SDS011;36118;56.468;84.952;2023-08-24T12:40:58;11.70;;;5.82;;
50231;SDS011;36118;56.468;84.952;2023-08-24T12:46:01;10.60;;;5.85;;
50231;SDS011;36118;56.468;84.952;2023-08-24T12:51:05;14.40;;;5.97;;
50231;SDS011;36118;56.468;84.952;2023-08-24T12:56:09;10.93;;;6.00;;
50231;SDS011;36118;56.468;84.952;2023-08-24T13:01:13;12.13;;;6.25;;
50231;SDS011;36118;56.468;84.952;2023-08-24T13:06:16;16.95;;;7.35;;
50231;SDS011;36118;56.468;84.952;2023-08-24T13:11:25;15.30;;;7.13;;
50231;SDS011;36118;56.468;84.952;2023-08-24T13:16:49;19.42;;;8.50;;
50231;SDS011;36118;56.468;84.952;2023-08-24T13:21:53;20.53;;;9.47;;
50231;SDS011;36118;56.468;84.952;2023-08-24T13:26:56;22.75;;;9.85;;
50231;SDS011;36118;56.468;84.952;2023-08-24T13:31:59;24.38;;;10.68;;
50231;SDS011;36118;56.468;84.952;2023-08-24T13:37:02;28.45;;;12.13;;
50231;SDS011;36118;56.468;84.952;2023-08-24T13:42:07;26.30;;;10.67;;
50231;SDS011;36118;56.468;84.952;2023-08-24T13:47:10;20.52;;;9.43;;
50231;SDS011;36118;56.468;84.952;2023-08-24T13:52:13;19.00;;;9.90;;
50231;SDS011;36118;56.468;84.952;2023-08-24T13:57:16;21.75;;;9.23;;
50231;SDS011;36118;56.468;84.952;2023-08-24T14:02:20;19.33;;;9.30;;
50231;SDS011;36118;56.468;84.952;2023-08-24T14:07:23;16.65;;;9.27;;
50231;SDS011;36118;56.468;84.952;2023-08-24T14:12:27;19.10;;;9.90;;
50231;SDS011;36118;56.468;84.952;2023-08-24T14:17:32;18.02;;;9.82;;
50231;SDS011;36118;56.468;84.952;2023-08-24T14:22:35;16.52;;;9.02;;
50231;SDS011;36118;56.468;84.952;2023-08-24T14:27:39;22.70;;;8.80;;
50231;SDS011;36118;56.468;84.952;2023-08-24T14:32:56;19.55;;;8.32;;
50231;SDS011;36118;56.468;84.952;2023-08-24T14:37:59;15.30;;;8.00;;
50231;SDS011;36118;56.468;84.952;2023-08-24T14:43:02;13.90;;;7.25;;
50231;SDS011;36118;56.468;84.952;2023-08-24T14:48:07;14.98;;;8.10;;
50231;SDS011;36118;56.468;84.952;2023-08-24T14:53:10;12.70;;;7.78;;
50231;SDS011;36118;56.468;84.952;2023-08-24T14:58:14;15.30;;;7.68;;
50231;SDS011;36118;56.468;84.952;2023-08-24T15:03:17;16.98;;;7.60;;
50231;SDS011;36118;56.468;84.952;2023-08-24T15:08:21;14.43;;;7.38;;
50231;SDS011;36118;56.468;84.952;2023-08-24T15:13:25;16.63;;;8.05;;
50231;SDS011;36118;56.468;84.952;2023-08-24T15:18:29;14.13;;;7.95;;
50231;SDS011;36118;56.468;84.952;2023-08-24T15:23:32;15.00;;;7.72;;
50231;SDS011;36118;56.468;84.952;2023-08-24T15:28:36;14.75;;;7.20;;
50231;SDS011;36118;56.468;84.952;2023-08-24T15:38:43;20.52;;;9.20;;
50231;SDS011;36118;56.468;84.952;2023-08-24T15:43:47;13.43;;;7.75;;
50231;SDS011;36118;56.468;84.952;2023-08-24T15:48:51;14.70;;;7.53;;
50231;SDS011;36118;56.468;84.952;2023-08-24T15:53:59;15.07;;;7.55;;
50231;SDS011;36118;56.468;84.952;2023-08-24T15:59:04;14.57;;;8.35;;
50231;SDS011;36118;56.468;84.952;2023-08-24T16:04:07;20.38;;;9.48;;
50231;SDS011;36118;56.468;84.952;2023-08-24T16:09:10;14.05;;;8.30;;
50231;SDS011;36118;56.468;84.952;2023-08-24T16:14:14;17.63;;;8.30;;
50231;SDS011;36118;56.468;84.952;2023-08-24T16:19:18;13.68;;;7.85;;
50231;SDS011;36118;56.468;84.952;2023-08-24T16:24:21;17.38;;;9.13;;
50231;SDS011;36118;56.468;84.952;2023-08-24T16:29:24;15.65;;;8.23;;
50231;SDS011;36118;56.468;84.952;2023-08-24T16:34:29;15.73;;;8.82;;
50231;SDS011;36118;56.468;84.952;2023-08-24T16:39:32;12.88;;;7.43;;
50231;SDS011;36118;56.468;84.952;2023-08-24T16:44:35;18.90;;;7.80;;
50231;SDS011;36118;56.468;84.952;2023-08-24T16:49:37;9.68;;;6.70;;
50231;SDS011;36118;56.468;84.952;2023-08-24T16:54:41;9.52;;;6.32;;
50231;SDS011;36118;56.468;84.952;2023-08-24T16:59:44;15.85;;;10.10;;
50231;SDS011;36118;56.468;84.952;2023-08-24T17:04:47;9.35;;;5.68;;
50231;SDS011;36118;56.468;84.952;2023-08-24T17:09:50;12.65;;;6.07;;
50231;SDS011;36118;56.468;84.952;2023-08-24T17:14:53;10.13;;;6.38;;
50231;SDS011;36118;56.468;84.952;2023-08-24T17:19:56;10.18;;;5.90;;
50231;SDS011;36118;56.468;84.952;2023-08-24T17:24:59;12.27;;;6.43;;
50231;SDS011;36118;56.468;84.952;2023-08-24T17:30:04;11.95;;;6.25;;
50231;SDS011;36118;56.468;84.952;2023-08-24T17:35:08;22.53;;;17.40;;
50231;SDS011;36118;56.468;84.952;2023-08-24T17:40:11;12.20;;;6.20;;
50231;SDS011;36118;56.468;84.952;2023-08-24T17:45:15;11.75;;;6.05;;
50231;SDS011;36118;56.468;84.952;2023-08-24T17:50:21;13.23;;;6.60;;
50231;SDS011;36118;56.468;84.952;2023-08-24T17:55:25;15.55;;;7.10;;
50231;SDS011;36118;56.468;84.952;2023-08-24T18:00:29;14.27;;;7.13;;
50231;SDS011;36118;56.468;84.952;2023-08-24T18:05:32;12.77;;;7.40;;
50231;SDS011;36118;56.468;84.952;2023-08-24T18:10:36;12.32;;;7.40;;
50231;SDS011;36118;56.468;84.952;2023-08-24T18:15:40;16.30;;;8.00;;
50231;SDS011;36118;56.468;84.952;2023-08-24T18:20:44;13.38;;;7.75;;
50231;SDS011;36118;56.468;84.952;2023-08-24T18:25:47;14.32;;;8.25;;
50231;SDS011;36118;56.468;84.952;2023-08-24T18:30:58;16.45;;;8.23;;
50231;SDS011;36118;56.468;84.952;2023-08-24T18:36:02;14.30;;;8.32;;
50231;SDS011;36118;56.468;84.952;2023-08-24T18:41:05;16.75;;;7.97;;
50231;SDS011;36118;56.468;84.952;2023-08-24T18:46:08;11.75;;;7.40;;
50231;SDS011;36118;56.468;84.952;2023-08-24T18:51:12;15.43;;;8.23;;
50231;SDS011;36118;56.468;84.952;2023-08-24T18:56:15;13.40;;;7.80;;
50231;SDS011;36118;56.468;84.952;2023-08-24T19:01:18;10.73;;;7.43;;
50231;SDS011;36118;56.468;84.952;2023-08-24T19:06:21;12.40;;;7.97;;
50231;SDS011;36118;56.468;84.952;2023-08-24T19:11:33;11.18;;;7.97;;
50231;SDS011;36118;56.468;84.952;2023-08-24T19:16:37;12.48;;;8.32;;
50231;SDS011;36118;56.468;84.952;2023-08-24T19:21:40;11.80;;;7.20;;
50231;SDS011;36118;56.468;84.952;2023-08-24T19:26:43;10.32;;;6.57;;
50231;SDS011;36118;56.468;84.952;2023-08-24T19:31:46;11.30;;;6.40;;
50231;SDS011;36118;56.468;84.952;2023-08-24T19:36:49;11.13;;;6.20;;
50231;SDS011;36118;56.468;84.952;2023-08-24T19:41:52;9.35;;;5.85;;
50231;SDS011;36118;56.468;84.952;2023-08-24T19:47:01;8.20;;;5.45;;
50231;SDS011;36118;56.468;84.952;2023-08-24T19:52:04;7.78;;;5.30;;
50231;SDS011;36118;56.468;84.952;2023-08-24T19:57:07;7.55;;;5.00;;
50231;SDS011;36118;56.468;84.952;2023-08-24T20:07:15;7.30;;;4.90;;
50231;SDS011;36118;56.468;84.952;2023-08-24T20:12:18;6.40;;;4.63;;
50231;SDS011;36118;56.468;84.952;2023-08-24T20:17:21;6.47;;;3.80;;
50231;SDS011;36118;56.468;84.952;2023-08-24T20:22:24;6.85;;;4.13;;
50231;SDS011;36118;56.468;84.952;2023-08-24T20:27:27;7.93;;;3.97;;
50231;SDS011;36118;56.468;84.952;2023-08-24T20:32:30;6.70;;;3.95;;
50231;SDS011;36118;56.468;84.952;2023-08-24T20:37:33;8.85;;;4.68;;
50231;SDS011;36118;56.468;84.952;2023-08-24T20:42:37;8.88;;;4.85;;
50231;SDS011;36118;56.468;84.952;2023-08-24T20:47:40;9.07;;;5.20;;
50231;SDS011;36118;56.468;84.952;2023-08-24T20:52:43;9.85;;;5.63;;
50231;SDS011;36118;56.468;84.952;2023-08-24T20:57:46;9.02;;;5.30;;
50231;SDS011;36118;56.468;84.952;2023-08-24T21:02:50;12.88;;;5.38;;
50231;SDS011;36118;56.468;84.952;2023-08-24T21:07:53;7.75;;;5.63;;
50231;SDS011;36118;56.468;84.952;2023-08-24T21:12:58;9.98;;;5.80;;
50231;SDS011;36118;56.468;84.952;2023-08-24T21:18:02;8.50;;;5.47;;
50231;SDS011;36118;56.468;84.952;2023-08-24T21:23:05;8.43;;;5.90;;
50231;SDS011;36118;56.468;84.952;2023-08-24T21:28:08;8.75;;;6.00;;
50231;SDS011;36118;56.468;84.952;2023-08-24T21:33:12;9.45;;;6.35;;
50231;SDS011;36118;56.468;84.952;2023-08-24T21:38:15;9.85;;;6.22;;
50231;SDS011;36118;56.468;84.952;2023-08-24T21:43:18;10.27;;;6.47;;
50231;SDS011;36118;56.468;84.952;2023-08-24T21:48:22;9.57;;;6.43;;
50231;SDS011;36118;56.468;84.952;2023-08-24T21:53:25;12.98;;;6.60;;
50231;SDS011;36118;56.468;84.952;2023-08-24T21:58:29;10.57;;;6.35;;
50231;SDS011;36118;56.468;84.952;2023-08-24T22:03:33;10.02;;;5.93;;
50231;SDS011;36118;56.468;84.952;2023-08-24T22:08:37;9.75;;;6.53;;
50231;SDS011;36118;56.468;84.952;2023-08-24T22:13:41;9.35;;;6.30;;
50231;SDS011;36118;56.468;84.952;2023-08-24T22:18:44;11.90;;;6.38;;
50231;SDS011;36118;56.468;84.952;2023-08-24T22:23:48;15.23;;;6.65;;
50231;SDS011;36118;56.468;84.952;2023-08-24T22:28:52;9.85;;;6.18;;
50231;SDS011;36118;56.468;84.952;2023-08-24T22:33:56;11.20;;;6.55;;
50231;SDS011;36118;56.468;84.952;2023-08-24T22:38:59;12.07;;;6.65;;
50231;SDS011;36118;56.468;84.952;2023-08-24T22:44:02;10.02;;;6.40;;
50231;SDS011;36118;56.468;84.952;2023-08-24T22:49:06;8.52;;;6.70;;
50231;SDS011;36118;56.468;84.952;2023-08-24T22:54:10;8.77;;;6.60;;
50231;SDS011;36118;56.468;84.952;2023-08-24T22:59:13;15.15;;;7.72;;
50231;SDS011;36118;56.468;84.952;2023-08-24T23:04:16;13.55;;;7.22;;
50231;SDS011;36118;56.468;84.952;2023-08-24T23:09:19;10.77;;;7.43;;
50231;SDS011;36118;56.468;84.952;2023-08-24T23:14:24;14.77;;;7.68;;
50231;SDS011;36118;56.468;84.952;2023-08-24T23:19:28;12.60;;;7.45;;
50231;SDS011;36118;56.468;84.952;2023-08-24T23:24:31;14.15;;;7.97;;
50231;SDS011;36118;56.468;84.952;2023-08-24T23:29:37;12.88;;;7.70;;
50231;SDS011;36118;56.468;84.952;2023-08-24T23:34:40;15.55;;;8.07;;
50231;SDS011;36118;56.468;84.952;2023-08-24T23:39:43;17.33;;;8.35;;
50231;SDS011;36118;56.468;84.952;2023-08-24T23:44:47;17.20;;;8.82;;
50231;SDS011;36118;56.468;84.952;2023-08-24T23:49:50;18.48;;;8.70;;
50231;SDS011;36118;56.468;84.952;2023-08-24T23:54:53;16.08;;;8.82;;
50231;SDS011;36118;56.468;84.952;2023-08-24T23:59:57;16.45;;;8.98;;
